sensor_id;sensor_type;location;lat;lon;timestamp;P1;durP1;ratioP1;P2;durP2;ratioP2
46363;SDS011;32071;49.036;9.344;2023-04-03T00:02:10;4.00;;;3.60;;
46363;SDS011;32071;49.036;9.344;2023-04-03T00:04:35;8.87;;;3.77;;
46363;SDS011;32071;49.036;9.344;2023-04-03T00:07:01;4.50;;;3.30;;
46363;SDS011;32071;49.036;9.344;2023-04-03T00:09:26;4.40;;;3.70;;
46363;SDS011;32071;49.036;9.344;2023-04-03T00:11:52;6.87;;;3.10;;
46363;SDS011;32071;49.036;9.344;2023-04-03T00:14:17;5.33;;;3.13;;
46363;SDS011;32071;49.036;9.344;2023-04-03T00:16:43;5.50;;;3.47;;
46363;SDS011;32071;49.036;9.344;2023-04-03T00:19:08;4.60;;;3.43;;
46363;SDS011;32071;49.036;9.344;2023-04-03T00:21:36;3.97;;;3.03;;
46363;SDS011;32071;49.036;9.344;2023-04-03T00:24:02;4.53;;;3.20;;
46363;SDS011;32071;49.036;9.344;2023-04-03T00:26:28;4.30;;;3.03;;
46363;SDS011;32071;49.036;9.344;2023-04-03T00:28:53;4.00;;;3.30;;
46363;SDS011;32071;49.036;9.344;2023-04-03T00:31:19;5.33;;;3.20;;
46363;SDS011;32071;49.036;9.344;2023-04-03T00:33:44;3.80;;;3.00;;
46363;SDS011;32071;49.036;9.344;2023-04-03T00:36:10;5.43;;;2.80;;
46363;SDS011;32071;49.036;9.344;2023-04-03T00:38:37;3.90;;;3.30;;
46363;SDS011;32071;49.036;9.344;2023-04-03T00:41:02;6.23;;;3.33;;
46363;SDS011;32071;49.036;9.344;2023-04-03T00:43:28;3.50;;;3.20;;
46363;SDS011;32071;49.036;9.344;2023-04-03T00:45:55;4.17;;;3.23;;
46363;SDS011;32071;49.036;9.344;2023-04-03T00:48:26;5.70;;;3.27;;
46363;SDS011;32071;49.036;9.344;2023-04-03T00:50:57;5.90;;;3.40;;
46363;SDS011;32071;49.036;9.344;2023-04-03T00:53:25;5.37;;;3.30;;
46363;SDS011;32071;49.036;9.344;2023-04-03T00:55:55;5.83;;;3.00;;
46363;SDS011;32071;49.036;9.344;2023-04-03T00:58:23;3.93;;;2.40;;
46363;SDS011;32071;49.036;9.344;2023-04-03T01:00:58;3.30;;;2.77;;
46363;SDS011;32071;49.036;9.344;2023-04-03T01:03:30;3.60;;;2.63;;
46363;SDS011;32071;49.036;9.344;2023-04-03T01:05:56;3.20;;;2.80;;
46363;SDS011;32071;49.036;9.344;2023-04-03T01:08:22;3.10;;;2.60;;
46363;SDS011;32071;49.036;9.344;2023-04-03T01:10:48;3.20;;;2.50;;
46363;SDS011;32071;49.036;9.344;2023-04-03T01:13:19;4.03;;;3.40;;
46363;SDS011;32071;49.036;9.344;2023-04-03T01:15:49;3.70;;;2.87;;
46363;SDS011;32071;49.036;9.344;2023-04-03T01:18:15;3.60;;;2.63;;
46363;SDS011;32071;49.036;9.344;2023-04-03T01:26:16;4.43;;;2.97;;
46363;SDS011;32071;49.036;9.344;2023-04-03T01:28:41;4.10;;;3.03;;
46363;SDS011;32071;49.036;9.344;2023-04-03T01:34:25;2.80;;;2.60;;
46363;SDS011;32071;49.036;9.344;2023-04-03T01:36:51;4.20;;;2.73;;
46363;SDS011;32071;49.036;9.344;2023-04-03T01:39:17;4.43;;;3.43;;
46363;SDS011;32071;49.036;9.344;2023-04-03T01:41:44;5.10;;;2.73;;
46363;SDS011;32071;49.036;9.344;2023-04-03T01:44:10;3.23;;;2.87;;
46363;SDS011;32071;49.036;9.344;2023-04-03T01:46:36;3.47;;;2.90;;
46363;SDS011;32071;49.036;9.344;2023-04-03T01:49:02;2.93;;;2.70;;
46363;SDS011;32071;49.036;9.344;2023-04-03T01:51:28;7.60;;;3.80;;
46363;SDS011;32071;49.036;9.344;2023-04-03T01:53:55;2.83;;;2.50;;
46363;SDS011;32071;49.036;9.344;2023-04-03T01:56:20;4.43;;;3.23;;
46363;SDS011;32071;49.036;9.344;2023-04-03T01:58:46;3.20;;;2.90;;
46363;SDS011;32071;49.036;9.344;2023-04-03T02:01:12;2.37;;;2.07;;
46363;SDS011;32071;49.036;9.344;2023-04-03T02:03:37;3.60;;;2.17;;
46363;SDS011;32071;49.036;9.344;2023-04-03T02:06:03;5.63;;;3.17;;
46363;SDS011;32071;49.036;9.344;2023-04-03T02:08:28;4.73;;;3.03;;
46363;SDS011;32071;49.036;9.344;2023-04-03T02:10:54;3.83;;;2.93;;
46363;SDS011;32071;49.036;9.344;2023-04-03T02:13:19;5.23;;;3.10;;
46363;SDS011;32071;49.036;9.344;2023-04-03T02:15:45;3.53;;;2.50;;
46363;SDS011;32071;49.036;9.344;2023-04-03T02:18:12;6.07;;;3.00;;
46363;SDS011;32071;49.036;9.344;2023-04-03T02:20:38;3.53;;;2.80;;
46363;SDS011;32071;49.036;9.344;2023-04-03T02:23:04;5.43;;;3.27;;
46363;SDS011;32071;49.036;9.344;2023-04-03T02:25:30;4.80;;;3.03;;
46363;SDS011;32071;49.036;9.344;2023-04-03T02:27:56;4.10;;;3.00;;
46363;SDS011;32071;49.036;9.344;2023-04-03T02:30:22;3.33;;;3.03;;
46363;SDS011;32071;49.036;9.344;2023-04-03T02:32:47;3.30;;;2.70;;
46363;SDS011;32071;49.036;9.344;2023-04-03T02:35:13;2.87;;;2.60;;
46363;SDS011;32071;49.036;9.344;2023-04-03T02:37:38;3.70;;;2.40;;
46363;SDS011;32071;49.036;9.344;2023-04-03T02:40:04;3.03;;;2.47;;
46363;SDS011;32071;49.036;9.344;2023-04-03T02:42:31;2.90;;;2.53;;
46363;SDS011;32071;49.036;9.344;2023-04-03T02:44:56;4.40;;;3.03;;
46363;SDS011;32071;49.036;9.344;2023-04-03T02:47:22;4.80;;;2.87;;
46363;SDS011;32071;49.036;9.344;2023-04-03T02:49:48;6.57;;;3.57;;
46363;SDS011;32071;49.036;9.344;2023-04-03T02:52:13;3.47;;;3.10;;
46363;SDS011;32071;49.036;9.344;2023-04-03T02:54:39;3.80;;;2.90;;
46363;SDS011;32071;49.036;9.344;2023-04-03T02:57:05;6.73;;;2.80;;
46363;SDS011;32071;49.036;9.344;2023-04-03T02:59:33;3.30;;;2.60;;
46363;SDS011;32071;49.036;9.344;2023-04-03T03:02:00;4.17;;;3.20;;
46363;SDS011;32071;49.036;9.344;2023-04-03T03:04:25;5.30;;;3.20;;
46363;SDS011;32071;49.036;9.344;2023-04-03T03:06:51;3.90;;;2.70;;
46363;SDS011;32071;49.036;9.344;2023-04-03T03:09:17;3.43;;;2.67;;
46363;SDS011;32071;49.036;9.344;2023-04-03T03:11:43;5.00;;;3.10;;
46363;SDS011;32071;49.036;9.344;2023-04-03T03:14:08;3.73;;;2.77;;
46363;SDS011;32071;49.036;9.344;2023-04-03T03:16:34;3.73;;;2.97;;
46363;SDS011;32071;49.036;9.344;2023-04-03T03:19:00;3.43;;;2.87;;
46363;SDS011;32071;49.036;9.344;2023-04-03T03:21:25;5.17;;;3.00;;
46363;SDS011;32071;49.036;9.344;2023-04-03T03:23:51;4.00;;;2.83;;
46363;SDS011;32071;49.036;9.344;2023-04-03T03:26:17;3.13;;;2.60;;
46363;SDS011;32071;49.036;9.344;2023-04-03T03:28:42;3.90;;;3.03;;
46363;SDS011;32071;49.036;9.344;2023-04-03T03:31:08;3.60;;;2.67;;
46363;SDS011;32071;49.036;9.344;2023-04-03T03:33:34;3.87;;;3.07;;
46363;SDS011;32071;49.036;9.344;2023-04-03T03:36:00;4.10;;;2.63;;
46363;SDS011;32071;49.036;9.344;2023-04-03T03:38:25;3.90;;;2.43;;
46363;SDS011;32071;49.036;9.344;2023-04-03T03:40:51;4.60;;;3.07;;
46363;SDS011;32071;49.036;9.344;2023-04-03T03:43:17;3.40;;;2.97;;
46363;SDS011;32071;49.036;9.344;2023-04-03T03:45:43;4.40;;;3.53;;
46363;SDS011;32071;49.036;9.344;2023-04-03T03:48:10;5.80;;;2.60;;
46363;SDS011;32071;49.036;9.344;2023-04-03T03:50:36;4.63;;;2.70;;
46363;SDS011;32071;49.036;9.344;2023-04-03T03:53:01;5.70;;;3.30;;
46363;SDS011;32071;49.036;9.344;2023-04-03T03:55:27;5.77;;;3.30;;
46363;SDS011;32071;49.036;9.344;2023-04-03T03:57:53;3.00;;;2.67;;
46363;SDS011;32071;49.036;9.344;2023-04-03T04:00:19;4.20;;;3.13;;
46363;SDS011;32071;49.036;9.344;2023-04-03T04:02:45;3.30;;;2.40;;
46363;SDS011;32071;49.036;9.344;2023-04-03T04:05:10;5.00;;;2.80;;
46363;SDS011;32071;49.036;9.344;2023-04-03T04:07:36;4.80;;;3.07;;
46363;SDS011;32071;49.036;9.344;2023-04-03T04:10:02;5.10;;;3.00;;
46363;SDS011;32071;49.036;9.344;2023-04-03T04:12:28;5.53;;;3.03;;
46363;SDS011;32071;49.036;9.344;2023-04-03T04:14:54;3.90;;;3.10;;
46363;SDS011;32071;49.036;9.344;2023-04-03T04:17:19;2.60;;;2.40;;
46363;SDS011;32071;49.036;9.344;2023-04-03T04:19:45;5.10;;;3.00;;
46363;SDS011;32071;49.036;9.344;2023-04-03T04:22:11;4.13;;;3.17;;
46363;SDS011;32071;49.036;9.344;2023-04-03T04:24:36;3.70;;;3.00;;
46363;SDS011;32071;49.036;9.344;2023-04-03T04:27:02;3.60;;;2.67;;
46363;SDS011;32071;49.036;9.344;2023-04-03T04:29:27;6.50;;;3.40;;
46363;SDS011;32071;49.036;9.344;2023-04-03T04:31:53;4.23;;;2.73;;
46363;SDS011;32071;49.036;9.344;2023-04-03T04:34:18;3.67;;;3.13;;
46363;SDS011;32071;49.036;9.344;2023-04-03T04:36:44;6.53;;;3.10;;
46363;SDS011;32071;49.036;9.344;2023-04-03T04:39:10;4.27;;;3.00;;
46363;SDS011;32071;49.036;9.344;2023-04-03T04:41:35;4.97;;;2.93;;
46363;SDS011;32071;49.036;9.344;2023-04-03T04:44:01;3.33;;;2.53;;
46363;SDS011;32071;49.036;9.344;2023-04-03T04:46:27;5.10;;;2.93;;
46363;SDS011;32071;49.036;9.344;2023-04-03T04:48:52;4.23;;;3.40;;
46363;SDS011;32071;49.036;9.344;2023-04-03T04:51:18;4.50;;;3.07;;
46363;SDS011;32071;49.036;9.344;2023-04-03T04:53:43;4.50;;;3.47;;
46363;SDS011;32071;49.036;9.344;2023-04-03T04:56:09;8.40;;;3.50;;
46363;SDS011;32071;49.036;9.344;2023-04-03T04:58:35;4.07;;;2.83;;
46363;SDS011;32071;49.036;9.344;2023-04-03T05:01:02;3.73;;;2.73;;
46363;SDS011;32071;49.036;9.344;2023-04-03T05:03:29;3.80;;;3.13;;
46363;SDS011;32071;49.036;9.344;2023-04-03T05:05:55;5.20;;;3.10;;
46363;SDS011;32071;49.036;9.344;2023-04-03T05:08:20;3.33;;;3.00;;
46363;SDS011;32071;49.036;9.344;2023-04-03T05:10:46;6.27;;;3.13;;
46363;SDS011;32071;49.036;9.344;2023-04-03T05:13:12;3.27;;;2.90;;
46363;SDS011;32071;49.036;9.344;2023-04-03T05:15:38;3.00;;;2.60;;
46363;SDS011;32071;49.036;9.344;2023-04-03T05:18:04;5.90;;;3.00;;
46363;SDS011;32071;49.036;9.344;2023-04-03T05:20:30;4.63;;;2.93;;
46363;SDS011;32071;49.036;9.344;2023-04-03T05:22:56;4.73;;;3.20;;
46363;SDS011;32071;49.036;9.344;2023-04-03T05:25:22;3.50;;;3.20;;
46363;SDS011;32071;49.036;9.344;2023-04-03T05:27:48;3.57;;;2.57;;
46363;SDS011;32071;49.036;9.344;2023-04-03T05:30:14;5.33;;;3.70;;
46363;SDS011;32071;49.036;9.344;2023-04-03T05:32:39;4.77;;;3.50;;
46363;SDS011;32071;49.036;9.344;2023-04-03T05:35:06;3.43;;;2.90;;
46363;SDS011;32071;49.036;9.344;2023-04-03T05:37:32;5.53;;;3.63;;
46363;SDS011;32071;49.036;9.344;2023-04-03T05:39:58;3.97;;;3.00;;
46363;SDS011;32071;49.036;9.344;2023-04-03T05:42:24;5.30;;;3.33;;
46363;SDS011;32071;49.036;9.344;2023-04-03T05:44:49;8.40;;;2.90;;
46363;SDS011;32071;49.036;9.344;2023-04-03T05:47:15;3.27;;;2.97;;
46363;SDS011;32071;49.036;9.344;2023-04-03T05:49:41;6.07;;;3.40;;
46363;SDS011;32071;49.036;9.344;2023-04-03T05:52:42;5.00;;;3.10;;
46363;SDS011;32071;49.036;9.344;2023-04-03T05:55:03;4.57;;;3.50;;
46363;SDS011;32071;49.036;9.344;2023-04-03T05:57:30;4.30;;;3.20;;
46363;SDS011;32071;49.036;9.344;2023-04-03T05:59:55;3.60;;;2.83;;
46363;SDS011;32071;49.036;9.344;2023-04-03T06:02:21;5.40;;;3.77;;
46363;SDS011;32071;49.036;9.344;2023-04-03T06:04:49;5.43;;;3.20;;
46363;SDS011;32071;49.036;9.344;2023-04-03T06:07:16;4.27;;;3.53;;
46363;SDS011;32071;49.036;9.344;2023-04-03T06:09:45;4.50;;;3.23;;
46363;SDS011;32071;49.036;9.344;2023-04-03T06:12:12;4.70;;;3.50;;
46363;SDS011;32071;49.036;9.344;2023-04-03T06:14:38;5.80;;;4.67;;
46363;SDS011;32071;49.036;9.344;2023-04-03T06:17:03;7.57;;;4.20;;
46363;SDS011;32071;49.036;9.344;2023-04-03T06:19:29;5.63;;;4.00;;
46363;SDS011;32071;49.036;9.344;2023-04-03T06:21:55;4.20;;;3.30;;
46363;SDS011;32071;49.036;9.344;2023-04-03T06:24:21;6.70;;;4.00;;
46363;SDS011;32071;49.036;9.344;2023-04-03T06:26:49;4.13;;;3.73;;
46363;SDS011;32071;49.036;9.344;2023-04-03T06:29:16;5.00;;;4.00;;
46363;SDS011;32071;49.036;9.344;2023-04-03T06:31:42;5.73;;;4.63;;
46363;SDS011;32071;49.036;9.344;2023-04-03T06:34:08;5.40;;;4.00;;
46363;SDS011;32071;49.036;9.344;2023-04-03T06:36:35;7.87;;;4.20;;
46363;SDS011;32071;49.036;9.344;2023-04-03T06:39:00;5.77;;;4.03;;
46363;SDS011;32071;49.036;9.344;2023-04-03T06:41:27;5.47;;;4.03;;
46363;SDS011;32071;49.036;9.344;2023-04-03T06:43:53;6.87;;;4.10;;
46363;SDS011;32071;49.036;9.344;2023-04-03T06:46:21;4.17;;;3.77;;
46363;SDS011;32071;49.036;9.344;2023-04-03T06:48:47;7.47;;;4.10;;
46363;SDS011;32071;49.036;9.344;2023-04-03T06:51:24;5.50;;;3.60;;
46363;SDS011;32071;49.036;9.344;2023-04-03T06:53:51;5.13;;;4.50;;
46363;SDS011;32071;49.036;9.344;2023-04-03T06:56:18;7.50;;;4.07;;
46363;SDS011;32071;49.036;9.344;2023-04-03T06:58:44;5.97;;;4.00;;
46363;SDS011;32071;49.036;9.344;2023-04-03T07:01:11;6.20;;;3.87;;
46363;SDS011;32071;49.036;9.344;2023-04-03T07:03:38;4.33;;;3.77;;
46363;SDS011;32071;49.036;9.344;2023-04-03T07:06:04;5.80;;;3.70;;
46363;SDS011;32071;49.036;9.344;2023-04-03T07:08:31;6.97;;;3.83;;
46363;SDS011;32071;49.036;9.344;2023-04-03T07:10:58;4.90;;;3.80;;
46363;SDS011;32071;49.036;9.344;2023-04-03T07:13:23;5.40;;;3.87;;
46363;SDS011;32071;49.036;9.344;2023-04-03T07:15:49;6.47;;;4.33;;
46363;SDS011;32071;49.036;9.344;2023-04-03T07:18:15;5.37;;;3.83;;
46363;SDS011;32071;49.036;9.344;2023-04-03T07:20:42;5.67;;;3.97;;
46363;SDS011;32071;49.036;9.344;2023-04-03T07:23:07;6.40;;;4.17;;
46363;SDS011;32071;49.036;9.344;2023-04-03T07:25:33;7.10;;;4.07;;
46363;SDS011;32071;49.036;9.344;2023-04-03T07:27:59;6.07;;;4.40;;
46363;SDS011;32071;49.036;9.344;2023-04-03T07:30:24;6.50;;;4.17;;
46363;SDS011;32071;49.036;9.344;2023-04-03T07:32:51;7.13;;;4.77;;
46363;SDS011;32071;49.036;9.344;2023-04-03T07:35:16;5.97;;;4.30;;
46363;SDS011;32071;49.036;9.344;2023-04-03T07:37:42;6.83;;;5.03;;
46363;SDS011;32071;49.036;9.344;2023-04-03T07:40:08;6.80;;;4.57;;
46363;SDS011;32071;49.036;9.344;2023-04-03T07:42:34;6.00;;;4.30;;
46363;SDS011;32071;49.036;9.344;2023-04-03T07:45:01;4.70;;;3.93;;
46363;SDS011;32071;49.036;9.344;2023-04-03T07:47:27;6.43;;;4.40;;
46363;SDS011;32071;49.036;9.344;2023-04-03T07:49:53;6.90;;;4.50;;
46363;SDS011;32071;49.036;9.344;2023-04-03T07:52:19;7.03;;;4.50;;
46363;SDS011;32071;49.036;9.344;2023-04-03T07:54:44;6.27;;;4.60;;
46363;SDS011;32071;49.036;9.344;2023-04-03T07:57:10;10.23;;;4.90;;
46363;SDS011;32071;49.036;9.344;2023-04-03T07:59:35;8.50;;;4.00;;
46363;SDS011;32071;49.036;9.344;2023-04-03T08:02:01;4.97;;;4.20;;
46363;SDS011;32071;49.036;9.344;2023-04-03T08:04:29;5.43;;;3.90;;
46363;SDS011;32071;49.036;9.344;2023-04-03T08:06:55;4.87;;;3.80;;
46363;SDS011;32071;49.036;9.344;2023-04-03T08:09:20;6.13;;;4.33;;
46363;SDS011;32071;49.036;9.344;2023-04-03T08:11:47;7.27;;;4.03;;
46363;SDS011;32071;49.036;9.344;2023-04-03T08:14:12;5.00;;;4.03;;
46363;SDS011;32071;49.036;9.344;2023-04-03T08:16:42;6.57;;;4.37;;
46363;SDS011;32071;49.036;9.344;2023-04-03T08:19:08;4.20;;;3.90;;
46363;SDS011;32071;49.036;9.344;2023-04-03T08:21:35;6.50;;;4.50;;
46363;SDS011;32071;49.036;9.344;2023-04-03T08:24:01;10.20;;;4.37;;
46363;SDS011;32071;49.036;9.344;2023-04-03T08:26:29;6.07;;;4.27;;
46363;SDS011;32071;49.036;9.344;2023-04-03T08:28:54;5.77;;;4.23;;
46363;SDS011;32071;49.036;9.344;2023-04-03T08:31:20;9.83;;;3.97;;
46363;SDS011;32071;49.036;9.344;2023-04-03T08:33:46;6.20;;;4.23;;
46363;SDS011;32071;49.036;9.344;2023-04-03T08:36:21;4.03;;;3.60;;
46363;SDS011;32071;49.036;9.344;2023-04-03T08:38:51;21.03;;;3.63;;
46363;SDS011;32071;49.036;9.344;2023-04-03T08:41:29;5.70;;;4.27;;
46363;SDS011;32071;49.036;9.344;2023-04-03T08:47:02;4.80;;;3.87;;
46363;SDS011;32071;49.036;9.344;2023-04-03T08:49:45;4.40;;;3.23;;
46363;SDS011;32071;49.036;9.344;2023-04-03T08:54:57;7.40;;;4.33;;
46363;SDS011;32071;49.036;9.344;2023-04-03T08:57:30;6.93;;;4.20;;
46363;SDS011;32071;49.036;9.344;2023-04-03T08:59:59;4.10;;;3.63;;
46363;SDS011;32071;49.036;9.344;2023-04-03T09:02:49;5.50;;;4.03;;
46363;SDS011;32071;49.036;9.344;2023-04-03T09:05:38;4.67;;;3.77;;
46363;SDS011;32071;49.036;9.344;2023-04-03T09:13:41;5.30;;;3.50;;
46363;SDS011;32071;49.036;9.344;2023-04-03T09:22:15;5.83;;;4.13;;
46363;SDS011;32071;49.036;9.344;2023-04-03T09:24:45;3.70;;;3.03;;
46363;SDS011;32071;49.036;9.344;2023-04-03T09:27:15;4.43;;;3.60;;
46363;SDS011;32071;49.036;9.344;2023-04-03T09:29:42;5.10;;;3.40;;
46363;SDS011;32071;49.036;9.344;2023-04-03T09:32:27;3.70;;;3.17;;
46363;SDS011;32071;49.036;9.344;2023-04-03T09:34:56;4.13;;;3.73;;
46363;SDS011;32071;49.036;9.344;2023-04-03T09:37:34;4.43;;;3.67;;
46363;SDS011;32071;49.036;9.344;2023-04-03T09:45:42;3.83;;;3.37;;
46363;SDS011;32071;49.036;9.344;2023-04-03T09:53:28;14.10;;;4.00;;
46363;SDS011;32071;49.036;9.344;2023-04-03T09:55:54;7.73;;;4.40;;
46363;SDS011;32071;49.036;9.344;2023-04-03T09:58:27;6.53;;;3.57;;
46363;SDS011;32071;49.036;9.344;2023-04-03T10:00:56;4.90;;;3.73;;
46363;SDS011;32071;49.036;9.344;2023-04-03T10:03:25;3.83;;;3.30;;
46363;SDS011;32071;49.036;9.344;2023-04-03T10:05:51;5.40;;;3.30;;
46363;SDS011;32071;49.036;9.344;2023-04-03T10:08:20;4.73;;;3.87;;
46363;SDS011;32071;49.036;9.344;2023-04-03T10:11:04;6.93;;;3.43;;
46363;SDS011;32071;49.036;9.344;2023-04-03T10:13:52;3.80;;;3.40;;
46363;SDS011;32071;49.036;9.344;2023-04-03T10:16:26;5.80;;;3.53;;
46363;SDS011;32071;49.036;9.344;2023-04-03T10:19:00;4.43;;;3.70;;
46363;SDS011;32071;49.036;9.344;2023-04-03T10:29:40;7.20;;;3.73;;
46363;SDS011;32071;49.036;9.344;2023-04-03T10:41:12;6.43;;;3.43;;
46363;SDS011;32071;49.036;9.344;2023-04-03T10:43:46;5.70;;;3.67;;
46363;SDS011;32071;49.036;9.344;2023-04-03T10:49:00;5.60;;;3.40;;
46363;SDS011;32071;49.036;9.344;2023-04-03T10:51:45;6.47;;;4.03;;
46363;SDS011;32071;49.036;9.344;2023-04-03T10:54:24;4.00;;;3.40;;
46363;SDS011;32071;49.036;9.344;2023-04-03T10:56:56;4.03;;;3.17;;
46363;SDS011;32071;49.036;9.344;2023-04-03T11:02:07;4.30;;;3.90;;
46363;SDS011;32071;49.036;9.344;2023-04-03T11:04:44;5.93;;;3.00;;
46363;SDS011;32071;49.036;9.344;2023-04-03T11:07:16;3.30;;;2.60;;
46363;SDS011;32071;49.036;9.344;2023-04-03T11:09:48;3.30;;;2.30;;
46363;SDS011;32071;49.036;9.344;2023-04-03T11:12:28;3.70;;;2.10;;
46363;SDS011;32071;49.036;9.344;2023-04-03T11:15:11;2.40;;;2.20;;
46363;SDS011;32071;49.036;9.344;2023-04-03T11:17:42;2.03;;;1.83;;
46363;SDS011;32071;49.036;9.344;2023-04-03T11:20:15;2.53;;;1.80;;
46363;SDS011;32071;49.036;9.344;2023-04-03T11:22:53;3.10;;;2.00;;
46363;SDS011;32071;49.036;9.344;2023-04-03T11:25:24;2.20;;;2.00;;
46363;SDS011;32071;49.036;9.344;2023-04-03T11:30:20;3.37;;;2.10;;
46363;SDS011;32071;49.036;9.344;2023-04-03T11:32:59;3.20;;;1.70;;
46363;SDS011;32071;49.036;9.344;2023-04-03T11:35:33;2.03;;;1.90;;
46363;SDS011;32071;49.036;9.344;2023-04-03T11:38:00;2.57;;;2.37;;
46363;SDS011;32071;49.036;9.344;2023-04-03T11:40:31;3.50;;;2.30;;
46363;SDS011;32071;49.036;9.344;2023-04-03T11:47:57;1.90;;;1.80;;
46363;SDS011;32071;49.036;9.344;2023-04-03T11:50:42;3.17;;;2.27;;
46363;SDS011;32071;49.036;9.344;2023-04-03T11:58:19;4.27;;;2.40;;
46363;SDS011;32071;49.036;9.344;2023-04-03T12:08:43;2.40;;;2.20;;
46363;SDS011;32071;49.036;9.344;2023-04-03T12:29:36;2.37;;;2.10;;
46363;SDS011;32071;49.036;9.344;2023-04-03T12:43:17;3.40;;;2.17;;
46363;SDS011;32071;49.036;9.344;2023-04-03T12:48:26;2.87;;;2.00;;
46363;SDS011;32071;49.036;9.344;2023-04-03T12:50:53;6.23;;;2.53;;
46363;SDS011;32071;49.036;9.344;2023-04-03T12:53:21;2.50;;;2.30;;
46363;SDS011;32071;49.036;9.344;2023-04-03T12:55:54;3.70;;;2.50;;
46363;SDS011;32071;49.036;9.344;2023-04-03T13:01:15;2.97;;;2.70;;
46363;SDS011;32071;49.036;9.344;2023-04-03T13:03:44;2.17;;;1.97;;
46363;SDS011;32071;49.036;9.344;2023-04-03T13:06:21;3.70;;;2.70;;
46363;SDS011;32071;49.036;9.344;2023-04-03T13:08:55;4.10;;;2.80;;
46363;SDS011;32071;49.036;9.344;2023-04-03T13:11:24;3.80;;;2.23;;
46363;SDS011;32071;49.036;9.344;2023-04-03T13:13:59;3.57;;;2.20;;
46363;SDS011;32071;49.036;9.344;2023-04-03T13:16:27;3.33;;;2.30;;
46363;SDS011;32071;49.036;9.344;2023-04-03T13:18:53;4.03;;;2.43;;
46363;SDS011;32071;49.036;9.344;2023-04-03T13:21:24;5.33;;;2.77;;
46363;SDS011;32071;49.036;9.344;2023-04-03T13:23:53;3.70;;;2.30;;
46363;SDS011;32071;49.036;9.344;2023-04-03T13:26:29;4.67;;;2.20;;
46363;SDS011;32071;49.036;9.344;2023-04-03T13:28:57;4.43;;;2.20;;
46363;SDS011;32071;49.036;9.344;2023-04-03T13:31:29;2.73;;;2.50;;
46363;SDS011;32071;49.036;9.344;2023-04-03T13:34:06;5.73;;;2.40;;
46363;SDS011;32071;49.036;9.344;2023-04-03T13:36:38;3.00;;;2.77;;
46363;SDS011;32071;49.036;9.344;2023-04-03T13:41:36;4.10;;;2.37;;
46363;SDS011;32071;49.036;9.344;2023-04-03T13:46:41;3.63;;;2.63;;
46363;SDS011;32071;49.036;9.344;2023-04-03T13:51:46;2.27;;;2.07;;
46363;SDS011;32071;49.036;9.344;2023-04-03T13:54:23;3.00;;;1.80;;
46363;SDS011;32071;49.036;9.344;2023-04-03T13:57:00;2.70;;;2.20;;
46363;SDS011;32071;49.036;9.344;2023-04-03T13:59:30;4.87;;;3.13;;
46363;SDS011;32071;49.036;9.344;2023-04-03T14:04:32;4.83;;;2.87;;
46363;SDS011;32071;49.036;9.344;2023-04-03T14:07:12;4.30;;;2.27;;
46363;SDS011;32071;49.036;9.344;2023-04-03T14:09:39;2.80;;;2.30;;
46363;SDS011;32071;49.036;9.344;2023-04-03T14:12:06;5.20;;;2.80;;
46363;SDS011;32071;49.036;9.344;2023-04-03T14:14:37;3.50;;;2.73;;
46363;SDS011;32071;49.036;9.344;2023-04-03T14:17:09;5.00;;;2.70;;
46363;SDS011;32071;49.036;9.344;2023-04-03T14:19:39;4.10;;;2.40;;
46363;SDS011;32071;49.036;9.344;2023-04-03T14:22:24;3.00;;;2.33;;
46363;SDS011;32071;49.036;9.344;2023-04-03T14:24:53;3.20;;;2.30;;
46363;SDS011;32071;49.036;9.344;2023-04-03T14:27:24;3.30;;;2.37;;
46363;SDS011;32071;49.036;9.344;2023-04-03T14:29:52;2.77;;;2.50;;
46363;SDS011;32071;49.036;9.344;2023-04-03T14:32:21;4.23;;;3.10;;
46363;SDS011;32071;49.036;9.344;2023-04-03T14:34:48;2.73;;;2.10;;
46363;SDS011;32071;49.036;9.344;2023-04-03T14:37:20;3.10;;;2.43;;
46363;SDS011;32071;49.036;9.344;2023-04-03T14:39:48;4.47;;;3.00;;
46363;SDS011;32071;49.036;9.344;2023-04-03T14:42:16;4.03;;;2.60;;
46363;SDS011;32071;49.036;9.344;2023-04-03T14:44:44;4.80;;;2.53;;
46363;SDS011;32071;49.036;9.344;2023-04-03T14:47:13;2.53;;;2.33;;
46363;SDS011;32071;49.036;9.344;2023-04-03T14:49:41;3.53;;;3.17;;
46363;SDS011;32071;49.036;9.344;2023-04-03T14:52:16;3.57;;;2.63;;
46363;SDS011;32071;49.036;9.344;2023-04-03T14:54:48;4.73;;;2.93;;
46363;SDS011;32071;49.036;9.344;2023-04-03T14:57:14;2.77;;;2.30;;
46363;SDS011;32071;49.036;9.344;2023-04-03T14:59:41;3.73;;;2.20;;
46363;SDS011;32071;49.036;9.344;2023-04-03T15:05:00;3.20;;;2.43;;
46363;SDS011;32071;49.036;9.344;2023-04-03T15:07:29;4.40;;;3.00;;
46363;SDS011;32071;49.036;9.344;2023-04-03T15:10:15;3.53;;;2.60;;
46363;SDS011;32071;49.036;9.344;2023-04-03T15:12:43;3.30;;;2.60;;
46363;SDS011;32071;49.036;9.344;2023-04-03T15:15:10;2.30;;;2.20;;
46363;SDS011;32071;49.036;9.344;2023-04-03T15:17:35;3.03;;;2.30;;
46363;SDS011;32071;49.036;9.344;2023-04-03T15:20:01;2.53;;;2.33;;
46363;SDS011;32071;49.036;9.344;2023-04-03T15:22:27;5.80;;;3.00;;
46363;SDS011;32071;49.036;9.344;2023-04-03T15:24:53;4.33;;;2.50;;
46363;SDS011;32071;49.036;9.344;2023-04-03T15:27:19;2.50;;;2.30;;
46363;SDS011;32071;49.036;9.344;2023-04-03T15:29:44;2.80;;;2.60;;
46363;SDS011;32071;49.036;9.344;2023-04-03T15:32:10;3.90;;;2.40;;
46363;SDS011;32071;49.036;9.344;2023-04-03T15:34:37;3.80;;;3.10;;
46363;SDS011;32071;49.036;9.344;2023-04-03T15:37:02;3.40;;;2.77;;
46363;SDS011;32071;49.036;9.344;2023-04-03T15:39:28;2.90;;;2.60;;
46363;SDS011;32071;49.036;9.344;2023-04-03T15:41:54;4.17;;;2.80;;
46363;SDS011;32071;49.036;9.344;2023-04-03T15:44:20;2.90;;;2.60;;
46363;SDS011;32071;49.036;9.344;2023-04-03T15:46:46;3.50;;;2.60;;
46363;SDS011;32071;49.036;9.344;2023-04-03T15:49:16;13.13;;;2.27;;
46363;SDS011;32071;49.036;9.344;2023-04-03T15:51:43;7.70;;;2.70;;
46363;SDS011;32071;49.036;9.344;2023-04-03T15:54:09;4.20;;;2.87;;
46363;SDS011;32071;49.036;9.344;2023-04-03T15:56:35;3.10;;;2.40;;
46363;SDS011;32071;49.036;9.344;2023-04-03T15:59:00;2.80;;;2.43;;
46363;SDS011;32071;49.036;9.344;2023-04-03T16:01:26;4.23;;;2.63;;
46363;SDS011;32071;49.036;9.344;2023-04-03T16:03:51;2.73;;;2.30;;
46363;SDS011;32071;49.036;9.344;2023-04-03T16:06:17;4.70;;;2.27;;
46363;SDS011;32071;49.036;9.344;2023-04-03T16:08:43;2.20;;;2.00;;
46363;SDS011;32071;49.036;9.344;2023-04-03T16:11:10;3.27;;;2.33;;
46363;SDS011;32071;49.036;9.344;2023-04-03T16:13:36;3.30;;;2.90;;
46363;SDS011;32071;49.036;9.344;2023-04-03T16:16:01;2.87;;;2.57;;
46363;SDS011;32071;49.036;9.344;2023-04-03T16:18:28;3.13;;;2.67;;
46363;SDS011;32071;49.036;9.344;2023-04-03T16:20:54;5.20;;;2.90;;
46363;SDS011;32071;49.036;9.344;2023-04-03T16:23:20;3.40;;;3.00;;
46363;SDS011;32071;49.036;9.344;2023-04-03T16:25:47;3.80;;;3.10;;
46363;SDS011;32071;49.036;9.344;2023-04-03T16:28:14;3.93;;;2.97;;
46363;SDS011;32071;49.036;9.344;2023-04-03T16:30:41;3.63;;;3.00;;
46363;SDS011;32071;49.036;9.344;2023-04-03T16:33:08;3.33;;;2.40;;
46363;SDS011;32071;49.036;9.344;2023-04-03T16:35:35;5.33;;;3.00;;
46363;SDS011;32071;49.036;9.344;2023-04-03T16:38:00;2.90;;;2.30;;
46363;SDS011;32071;49.036;9.344;2023-04-03T16:40:26;4.73;;;2.90;;
46363;SDS011;32071;49.036;9.344;2023-04-03T16:42:51;3.13;;;2.83;;
46363;SDS011;32071;49.036;9.344;2023-04-03T16:45:17;3.63;;;2.80;;
46363;SDS011;32071;49.036;9.344;2023-04-03T16:47:43;6.00;;;2.90;;
46363;SDS011;32071;49.036;9.344;2023-04-03T16:50:09;3.33;;;3.03;;
46363;SDS011;32071;49.036;9.344;2023-04-03T16:52:34;4.40;;;2.87;;
46363;SDS011;32071;49.036;9.344;2023-04-03T16:55:00;3.30;;;2.43;;
46363;SDS011;32071;49.036;9.344;2023-04-03T16:57:26;3.10;;;2.80;;
46363;SDS011;32071;49.036;9.344;2023-04-03T16:59:52;3.30;;;2.80;;
46363;SDS011;32071;49.036;9.344;2023-04-03T17:02:19;6.00;;;3.17;;